Time,TemperatureF,DewpointF,PressureIn,WindDirection,WindDirectionDegrees,WindSpeedMPH,WindSpeedGustMPH,Humidity,HourlyPrecipIn,Conditions,Clouds,dailyrainin,SolarRadiationWatts/m^2,SoftwareType,DateUTC
2013-02-08 00:00:00,40.4,37.4,30.00,WNW,298,0.0,0.0,89,0.00,RA,,0.00,0.0,WeatherDisplay:10.37,2013-02-08 08:00:00,
2013-02-08 00:05:00,40.3,37.3,30.00,WNW,298,0.0,0.0,89,0.00,RA,,0.00,0.0,WeatherDisplay:10.37,2013-02-08 08:05:00,
2013-02-08 00:10:00,40.3,37.3,30.00,WNW,298,0.0,0.0,89,0.00,,,0.00,0.0,WeatherDisplay:10.37,2013-02-08 08:10:00,
2013-02-08 00:15:00,40.2,37.2,30.00,WNW,298,0.0,0.0,89,0.00,,,0.00,0.0,WeatherDisplay:10.37,2013-02-08 08:15:00,
2013-02-08 00:20:00,40.0,37.0,30.00,WNW,298,0.0,0.0,89,0.00,,,0.00,0.0,WeatherDisplay:10.37,2013-02-08 08:20:00,
2013-02-08 00:25:00,39.9,36.9,30.00,WNW,298,0.0,0.0,89,0.00,,,0.00,0.0,WeatherDisplay:10.37,2013-02-08 08:25:00,
2013-02-08 00:30:00,40.0,37.0,29.99,WNW,298,0.0,0.0,89,0.00,,,0.00,0.0,WeatherDisplay:10.37,2013-02-08 08:30:00,
2013-02-08 00:35:00,40.0,37.0,29.99,WNW,298,0.0,0.0,89,0.00,,,0.00,0.0,WeatherDisplay:10.37,2013-02-08 08:35:00,
2013-02-08 00:40:00,39.9,36.9,29.99,WNW,298,0.0,0.0,89,0.00,CLR,,0.00,0.0,WeatherDisplay:10.37,2013-02-08 08:40:00,
2013-02-08 00:45:00,39.7,36.7,29.99,WNW,298,0.0,0.0,89,0.00,,,0.00,0.0,WeatherDisplay:10.37,2013-02-08 08:45:00,
2013-02-08 00:50:00,39.5,36.5,29.99,WNW,298,0.0,0.0,89,0.00,,,0.00,0.0,WeatherDisplay:10.37,2013-02-08 08:50:00,
2013-02-08 00:56:00,39.4,36.4,29.98,WNW,298,0.0,0.0,89,0.00,,,0.00,0.0,WeatherDisplay:10.37,2013-02-08 08:56:00,
2013-02-08 01:01:00,39.3,36.3,29.98,WNW,298,0.0,0.0,89,0.00,CLR,,0.00,0.0,WeatherDisplay:10.37,2013-02-08 09:01:00,
2013-02-08 01:06:00,39.3,36.6,29.98,WNW,298,0.0,0.0,90,0.00,CLR,,0.00,0.0,WeatherDisplay:10.37,2013-02-08 09:06:00,
2013-02-08 01:11:00,39.3,36.6,29.98,WNW,298,0.0,0.0,90,0.00,,,0.00,0.0,WeatherDisplay:10.37,2013-02-08 09:11:00,
2013-02-08 01:16:00,39.3,36.6,29.97,WNW,298,0.0,0.0,90,0.00,,,0.00,0.0,WeatherDisplay:10.37,2013-02-08 09:16:00,
2013-02-08 01:21:00,39.1,36.4,29.97,WNW,298,0.0,0.0,90,0.00,,,0.00,0.0,WeatherDisplay:10.37,2013-02-08 09:21:00,
2013-02-08 01:26:00,39.0,36.3,29.97,WNW,298,0.0,0.0,90,0.00,,,0.00,0.0,WeatherDisplay:10.37,2013-02-08 09:26:00,
2013-02-08 01:31:00,38.8,35.8,29.97,WNW,298,0.0,0.0,89,0.00,,,0.00,0.0,WeatherDisplay:10.37,2013-02-08 09:31:00,
2013-02-08 01:36:00,38.7,36.0,29.97,WNW,298,0.0,0.0,90,0.00,,,0.00,0.0,WeatherDisplay:10.37,2013-02-08 09:36:00,
2013-02-08 01:41:00,38.7,36.0,29.97,WNW,298,0.0,0.0,90,0.00,,,0.00,0.0,WeatherDisplay:10.37,2013-02-08 09:41:00,
2013-02-08 01:46:00,38.8,36.1,29.97,WNW,298,0.0,0.0,90,0.00,,,0.00,0.0,WeatherDisplay:10.37,2013-02-08 09:46:00,
2013-02-08 01:51:00,38.9,36.2,29.97,WNW,298,0.0,0.0,90,0.00,,,0.00,0.0,WeatherDisplay:10.37,2013-02-08 09:51:00,
2013-02-08 01:56:00,38.9,36.2,29.97,WNW,298,0.0,0.0,90,0.00,,,0.00,0.0,WeatherDisplay:10.37,2013-02-08 09:56:00,
2013-02-08 02:01:00,39.0,36.3,29.97,WNW,298,0.0,0.0,90,0.00,CLR,,0.00,0.0,WeatherDisplay:10.37,2013-02-08 10:01:00,
2013-02-08 02:06:00,39.2,36.5,29.97,WNW,298,0.0,0.0,90,0.00,,,0.00,0.0,WeatherDisplay:10.37,2013-02-08 10:06:00,
2013-02-08 02:11:00,39.3,36.9,29.97,WNW,298,0.0,0.0,91,0.00,,,0.00,0.0,WeatherDisplay:10.37,2013-02-08 10:11:00,
2013-02-08 02:16:00,39.4,37.0,29.97,WNW,298,0.0,0.0,91,0.00,,,0.00,0.0,WeatherDisplay:10.37,2013-02-08 10:16:00,
2013-02-08 02:21:00,39.7,37.3,29.96,WNW,298,0.0,0.0,91,0.00,,,0.00,0.0,WeatherDisplay:10.37,2013-02-08 10:21:00,
2013-02-08 02:26:00,40.0,37.6,29.97,WNW,298,0.0,0.0,91,0.00,,,0.00,0.0,WeatherDisplay:10.37,2013-02-08 10:26:00,
2013-02-08 02:31:00,40.3,37.9,29.96,WNW,298,1.2,1.2,91,0.00,,,0.00,0.0,WeatherDisplay:10.37,2013-02-08 10:31:00,
2013-02-08 02:36:00,40.5,38.1,29.96,WNW,298,1.2,1.2,91,0.00,,,0.00,0.0,WeatherDisplay:10.37,2013-02-08 10:36:00,
2013-02-08 02:41:00,40.6,38.2,29.96,WNW,298,0.0,0.0,91,0.00,,,0.00,0.0,WeatherDisplay:10.37,2013-02-08 10:41:00,
2013-02-08 02:46:00,40.8,38.4,29.96,WNW,298,0.0,0.0,91,0.01,RA,,0.01,0.0,WeatherDisplay:10.37,2013-02-08 10:46:00,
2013-02-08 02:51:00,40.9,38.5,29.96,WNW,298,1.2,1.2,91,0.01,RA,,0.01,0.0,WeatherDisplay:10.37,2013-02-08 10:51:00,
2013-02-08 02:56:00,41.0,38.6,29.96,WNW,298,0.0,0.0,91,0.01,,,0.01,0.0,WeatherDisplay:10.37,2013-02-08 10:56:00,
2013-02-08 03:01:00,41.0,38.6,29.96,WNW,292,1.2,1.2,91,0.01,CLR,,0.01,0.0,WeatherDisplay:10.37,2013-02-08 11:01:00,
2013-02-08 03:06:00,41.0,38.6,29.95,WNW,292,1.2,1.2,91,0.01,,,0.01,0.0,WeatherDisplay:10.37,2013-02-08 11:06:00,
2013-02-08 03:11:00,40.9,38.5,29.95,WNW,294,1.2,1.2,91,0.01,,,0.01,0.0,WeatherDisplay:10.37,2013-02-08 11:11:00,
2013-02-08 03:16:00,40.8,38.4,29.95,NW,304,2.3,2.3,91,0.01,,,0.01,0.0,WeatherDisplay:10.37,2013-02-08 11:16:00,
2013-02-08 03:21:00,40.7,38.3,29.95,WNW,298,1.2,1.2,91,0.01,CLR,,0.01,0.0,WeatherDisplay:10.37,2013-02-08 11:21:00,
2013-02-08 03:26:00,40.7,38.3,29.95,WNW,298,1.0,1.0,91,0.01,CLR,,0.01,0.0,WeatherDisplay:10.37,2013-02-08 11:26:00,
2013-02-08 03:31:00,40.7,38.3,29.95,WNW,298,1.2,1.2,91,0.01,CLR,,0.01,0.0,WeatherDisplay:10.37,2013-02-08 11:31:00,
2013-02-08 03:36:00,40.6,38.2,29.95,WNW,298,0.0,0.0,91,0.01,CLR,,0.01,0.0,WeatherDisplay:10.37,2013-02-08 11:36:00,
2013-02-08 03:41:00,40.6,38.2,29.95,WNW,298,0.0,0.0,91,0.01,CLR,,0.01,0.0,WeatherDisplay:10.37,2013-02-08 11:41:00,
2013-02-08 03:46:00,40.6,37.9,29.94,WNW,298,0.0,0.0,90,0.00,,,0.01,0.0,WeatherDisplay:10.37,2013-02-08 11:46:00,
2013-02-08 03:51:00,40.6,37.9,29.95,WNW,298,0.0,0.0,90,0.00,,,0.01,0.0,WeatherDisplay:10.37,2013-02-08 11:51:00,
2013-02-08 03:56:00,40.5,37.8,29.94,WNW,298,0.0,0.0,90,0.00,,,0.01,0.0,WeatherDisplay:10.37,2013-02-08 11:56:00,
2013-02-08 04:01:00,40.5,37.8,29.94,WNW,298,0.0,0.0,90,0.00,CLR,,0.01,0.0,WeatherDisplay:10.37,2013-02-08 12:01:00,
2013-02-08 04:06:00,40.4,37.7,29.94,WNW,298,0.0,0.0,90,0.00,,,0.01,0.0,WeatherDisplay:10.37,2013-02-08 12:06:00,
2013-02-08 04:11:00,40.4,37.7,29.94,WNW,298,0.0,0.0,90,0.00,,,0.01,0.0,WeatherDisplay:10.37,2013-02-08 12:11:00,
2013-02-08 04:16:00,40.4,38.0,29.94,WNW,298,0.0,0.0,91,0.00,,,0.01,0.0,WeatherDisplay:10.37,2013-02-08 12:16:00,
2013-02-08 04:21:00,40.5,38.1,29.95,WNW,298,0.0,0.0,91,0.00,,,0.01,0.0,WeatherDisplay:10.37,2013-02-08 12:21:00,
2013-02-08 04:26:00,40.5,38.1,29.95,WNW,298,0.0,0.0,91,0.00,,,0.01,0.0,WeatherDisplay:10.37,2013-02-08 12:26:00,
2013-02-08 04:31:00,40.5,38.1,29.95,WNW,298,0.0,0.0,91,0.00,,,0.01,0.0,WeatherDisplay:10.37,2013-02-08 12:31:00,
2013-02-08 04:36:00,40.5,38.1,29.95,WNW,298,0.0,0.0,91,0.00,,,0.01,0.0,WeatherDisplay:10.37,2013-02-08 12:36:00,
2013-02-08 04:41:00,40.4,38.0,29.95,WNW,298,0.0,0.0,91,0.00,,,0.01,0.0,WeatherDisplay:10.37,2013-02-08 12:41:00,
2013-02-08 04:46:00,40.4,38.0,29.95,WNW,298,0.0,0.0,91,0.00,,,0.01,0.0,WeatherDisplay:10.37,2013-02-08 12:46:00,
2013-02-08 04:51:00,40.4,38.0,29.95,WNW,298,0.0,0.0,91,0.00,,,0.01,0.0,WeatherDisplay:10.37,2013-02-08 12:51:00,
2013-02-08 04:56:00,40.5,38.1,29.95,WNW,298,0.0,0.0,91,0.00,,,0.01,0.0,WeatherDisplay:10.37,2013-02-08 12:56:00,
2013-02-08 05:01:00,40.6,38.2,29.95,WNW,298,0.0,0.0,91,0.00,CLR,,0.01,0.0,WeatherDisplay:10.37,2013-02-08 13:01:00,
2013-02-08 05:06:00,40.7,38.3,29.95,WNW,298,0.0,0.0,91,0.00,,,0.01,0.0,WeatherDisplay:10.37,2013-02-08 13:06:00,
2013-02-08 05:11:00,40.7,38.3,29.95,WNW,298,0.0,0.0,91,0.00,,,0.01,0.0,WeatherDisplay:10.37,2013-02-08 13:11:00,
2013-02-08 05:16:00,40.7,38.3,29.95,WNW,298,0.0,0.0,91,0.00,,,0.01,0.0,WeatherDisplay:10.37,2013-02-08 13:16:00,
2013-02-08 05:21:00,40.7,38.3,29.95,WNW,298,1.2,1.2,91,0.00,,,0.01,0.0,WeatherDisplay:10.37,2013-02-08 13:21:00,
2013-02-08 05:26:00,40.7,38.3,29.95,WNW,298,0.0,0.0,91,0.00,,,0.01,0.0,WeatherDisplay:10.37,2013-02-08 13:26:00,
2013-02-08 05:31:00,40.8,38.4,29.95,WNW,298,0.0,0.0,91,0.00,,,0.01,0.0,WeatherDisplay:10.37,2013-02-08 13:31:00,
2013-02-08 05:36:00,40.8,38.4,29.95,WNW,298,0.0,0.0,91,0.00,,,0.01,0.0,WeatherDisplay:10.37,2013-02-08 13:36:00,
2013-02-08 05:41:00,40.9,38.5,29.96,WNW,298,1.2,0.0,91,0.00,,,0.01,0.0,WeatherDisplay:10.37,2013-02-08 13:41:00,
2013-02-08 05:46:00,40.9,38.5,29.95,WNW,298,0.0,0.0,91,0.00,,,0.01,0.0,WeatherDisplay:10.37,2013-02-08 13:46:00,
2013-02-08 05:51:00,40.9,38.5,29.95,WNW,298,0.0,0.0,91,0.00,,,0.01,0.0,WeatherDisplay:10.37,2013-02-08 13:51:00,
2013-02-08 05:56:00,40.9,38.5,29.95,WNW,298,0.0,0.0,91,0.00,,,0.01,0.0,WeatherDisplay:10.37,2013-02-08 13:56:00,
2013-02-08 06:01:00,40.9,38.5,29.95,WNW,298,0.0,0.0,91,0.00,,,0.01,0.0,WeatherDisplay:10.37,2013-02-08 14:01:00,
2013-02-08 06:06:00,40.9,38.5,29.95,WNW,298,0.0,0.0,91,0.00,,,0.01,0.0,WeatherDisplay:10.37,2013-02-08 14:06:00,
2013-02-08 06:11:00,40.9,38.5,29.95,WNW,298,0.0,0.0,91,0.00,,,0.01,0.0,WeatherDisplay:10.37,2013-02-08 14:11:00,
2013-02-08 06:16:00,40.9,38.5,29.95,WNW,298,0.0,0.0,91,0.00,,,0.01,0.0,WeatherDisplay:10.37,2013-02-08 14:16:00,
2013-02-08 06:21:00,40.9,38.5,29.96,WNW,298,0.0,0.0,91,0.00,,,0.01,0.0,WeatherDisplay:10.37,2013-02-08 14:21:00,
2013-02-08 06:26:00,40.9,38.5,29.96,WNW,298,0.0,0.0,91,0.00,,,0.01,0.0,WeatherDisplay:10.37,2013-02-08 14:26:00,
2013-02-08 06:31:00,40.8,38.4,29.96,WNW,298,0.0,0.0,91,0.00,,,0.01,0.0,WeatherDisplay:10.37,2013-02-08 14:31:00,
2013-02-08 06:36:00,40.7,38.3,29.96,WNW,298,0.0,0.0,91,0.00,,,0.01,0.0,WeatherDisplay:10.37,2013-02-08 14:36:00,
2013-02-08 06:41:00,40.6,38.2,29.97,WNW,298,0.0,0.0,91,0.00,,,0.02,0.0,WeatherDisplay:10.37,2013-02-08 14:41:00,
2013-02-08 06:46:00,40.6,38.2,29.97,WNW,298,0.0,0.0,91,0.01,RA,,0.02,0.0,WeatherDisplay:10.37,2013-02-08 14:46:00,
2013-02-08 06:51:00,40.5,38.1,29.97,WNW,298,0.0,0.0,91,0.01,RA,,0.02,0.0,WeatherDisplay:10.37,2013-02-08 14:51:00,
2013-02-08 06:56:00,40.6,38.2,29.97,WNW,298,0.0,0.0,91,0.02,RA,,0.03,0.0,WeatherDisplay:10.37,2013-02-08 14:56:00,
2013-02-08 07:01:00,40.8,38.4,29.97,WNW,298,1.2,0.0,91,0.02,RA,,0.03,0.0,WeatherDisplay:10.37,2013-02-08 15:01:00,
2013-02-08 07:06:00,41.0,40.2,29.97,WNW,298,1.2,1.2,97,0.02,OVC,,0.03,0.0,WeatherDisplay:10.37,2013-02-08 15:06:00,
2013-02-08 07:11:00,41.1,38.7,29.97,WNW,298,0.0,0.0,91,0.02,OVC,,0.03,0.0,WeatherDisplay:10.37,2013-02-08 15:11:00,
2013-02-08 07:16:00,41.1,38.7,29.97,WNW,298,0.0,0.0,91,0.02,OVC,,0.03,0.0,WeatherDisplay:10.37,2013-02-08 15:16:00,
2013-02-08 07:21:00,41.2,38.8,29.97,WNW,298,0.0,0.0,91,0.02,BKN,,0.03,5.0,WeatherDisplay:10.37,2013-02-08 15:21:00,
2013-02-08 07:26:00,41.3,39.2,29.97,WNW,298,0.0,0.0,92,0.03,RA,,0.04,7.0,WeatherDisplay:10.37,2013-02-08 15:26:00,
2013-02-08 07:31:00,41.4,39.0,29.97,WNW,298,0.0,0.0,91,0.03,RA,,0.04,11.0,WeatherDisplay:10.37,2013-02-08 15:31:00,
2013-02-08 07:36:00,41.4,39.0,29.97,WNW,298,0.0,0.0,91,0.03,BKN,,0.04,12.0,WeatherDisplay:10.37,2013-02-08 15:36:00,
2013-02-08 07:41:00,41.5,39.1,29.97,WNW,298,0.0,0.0,91,0.03,BKN,,0.04,18.0,WeatherDisplay:10.37,2013-02-08 15:41:00,
2013-02-08 07:46:00,41.6,39.2,29.97,WNW,298,0.0,0.0,91,0.02,BKN,,0.04,19.0,WeatherDisplay:10.37,2013-02-08 15:46:00,
2013-02-08 07:51:00,41.7,39.5,29.98,WNW,298,0.0,0.0,92,0.02,BKN,,0.04,21.0,WeatherDisplay:10.37,2013-02-08 15:51:00,
2013-02-08 07:56:00,41.8,39.6,29.98,WNW,298,0.0,0.0,92,0.01,BKN,,0.04,33.0,WeatherDisplay:10.37,2013-02-08 15:56:00,
2013-02-08 08:01:00,41.9,39.7,29.98,WNW,298,0.0,0.0,92,0.01,BKN,,0.04,37.0,WeatherDisplay:10.37,2013-02-08 16:01:00,
2013-02-08 08:06:00,41.9,39.7,29.98,WNW,298,0.0,0.0,92,0.01,BKN,,0.04,40.0,WeatherDisplay:10.37,2013-02-08 16:06:00,
2013-02-08 08:11:00,42.0,39.8,29.98,WNW,298,0.0,0.0,92,0.01,BKN,,0.04,37.0,WeatherDisplay:10.37,2013-02-08 16:11:00,
2013-02-08 08:16:00,42.0,39.8,29.98,WNW,298,1.2,0.0,92,0.01,BKN,,0.04,49.0,WeatherDisplay:10.37,2013-02-08 16:16:00,
2013-02-08 08:21:00,42.2,40.0,29.98,WNW,298,0.0,0.0,92,0.01,BKN,,0.04,60.0,WeatherDisplay:10.37,2013-02-08 16:21:00,
2013-02-08 08:26:00,42.3,40.1,29.98,WNW,298,0.0,0.0,92,0.00,BKN,,0.04,100.0,WeatherDisplay:10.37,2013-02-08 16:26:00,
2013-02-08 08:31:00,42.7,40.5,29.99,WNW,298,1.2,0.0,92,0.00,SCT,,0.04,174.0,WeatherDisplay:10.37,2013-02-08 16:31:00,
2013-02-08 08:36:00,43.6,41.4,29.99,WNW,298,0.0,0.0,92,0.00,CLR,,0.04,243.0,WeatherDisplay:10.37,2013-02-08 16:36:00,
2013-02-08 08:41:00,44.0,41.8,29.99,WNW,290,4.0,4.0,92,0.00,CLR,,0.04,250.0,WeatherDisplay:10.37,2013-02-08 16:41:00,
2013-02-08 08:46:00,43.6,41.4,29.99,WNW,290,2.3,2.3,92,0.00,CLR,,0.04,127.0,WeatherDisplay:10.37,2013-02-08 16:46:00,
2013-02-08 08:51:00,43.7,41.5,29.99,WNW,290,1.2,0.0,92,0.00,CLR,,0.04,193.0,WeatherDisplay:10.37,2013-02-08 16:51:00,
2013-02-08 08:56:00,44.0,41.5,29.99,WNW,290,1.2,1.2,91,0.00,SCT,,0.04,169.0,WeatherDisplay:10.37,2013-02-08 16:56:00,
2013-02-08 09:01:00,44.4,42.2,29.99,WNW,290,1.2,1.2,92,0.00,FEW,,0.04,148.0,WeatherDisplay:10.37,2013-02-08 17:01:00,
2013-02-08 09:06:00,44.2,41.7,29.99,WNW,295,2.3,2.3,91,0.00,SCT,,0.04,146.0,WeatherDisplay:10.37,2013-02-08 17:06:00,
2013-02-08 09:11:00,44.3,41.8,29.99,WNW,294,3.5,3.5,91,0.00,SCT,,0.04,190.0,WeatherDisplay:10.37,2013-02-08 17:11:00,
2013-02-08 09:16:00,44.5,42.0,29.99,WNW,286,4.6,4.6,91,0.00,SCT,,0.04,213.0,WeatherDisplay:10.37,2013-02-08 17:16:00,
2013-02-08 09:21:00,44.6,42.1,29.99,NW,311,1.2,1.2,91,0.00,FEW,,0.04,248.0,WeatherDisplay:10.37,2013-02-08 17:21:00,
2013-02-08 09:26:00,45.0,42.2,29.99,NW,320,1.2,1.2,90,0.00,SCT,,0.04,155.0,WeatherDisplay:10.37,2013-02-08 17:26:00,
2013-02-08 09:31:00,45.0,42.2,29.99,WNW,289,5.0,5.0,90,0.00,SCT,,0.04,98.0,WeatherDisplay:10.37,2013-02-08 17:31:00,
2013-02-08 09:36:00,45.0,42.2,30.00,NW,313,4.6,4.6,90,0.00,BKN,,0.04,139.0,WeatherDisplay:10.37,2013-02-08 17:36:00,
2013-02-08 09:41:00,44.8,41.8,30.00,NW,309,4.0,4.0,89,0.00,BKN,,0.04,197.0,WeatherDisplay:10.37,2013-02-08 17:41:00,
2013-02-08 09:46:00,44.8,41.5,30.00,NW,311,2.3,2.3,88,0.00,SCT,,0.04,216.0,WeatherDisplay:10.37,2013-02-08 17:46:00,
2013-02-08 09:51:00,45.1,41.5,30.00,NW,307,2.3,2.3,87,0.00,SCT,,0.04,304.0,WeatherDisplay:10.37,2013-02-08 17:51:00,
2013-02-08 09:56:00,45.3,41.1,30.00,NW,313,4.0,4.0,85,0.00,SCT,,0.04,163.0,WeatherDisplay:10.37,2013-02-08 17:56:00,
2013-02-08 10:01:00,45.3,40.7,30.01,NW,317,2.0,2.0,84,0.00,SCT,,0.04,162.0,WeatherDisplay:10.37,2013-02-08 18:01:00,
2013-02-08 10:06:00,45.3,40.7,30.01,WNW,298,4.6,4.6,84,0.00,BKN,,0.04,251.0,WeatherDisplay:10.37,2013-02-08 18:06:00,
2013-02-08 10:11:00,45.6,41.0,30.01,NNW,332,6.9,6.9,84,0.00,SCT,,0.04,336.0,WeatherDisplay:10.37,2013-02-08 18:11:00,
2013-02-08 10:16:00,46.2,41.3,30.01,NNW,332,1.0,1.0,83,0.00,SCT,,0.04,288.0,WeatherDisplay:10.37,2013-02-08 18:16:00,
2013-02-08 10:21:00,46.4,41.2,30.01,NNW,336,4.0,4.0,82,0.00,SCT,,0.04,195.0,WeatherDisplay:10.37,2013-02-08 18:21:00,
2013-02-08 10:26:00,46.2,40.7,30.01,NW,311,1.2,0.0,81,0.00,SCT,,0.04,209.0,WeatherDisplay:10.37,2013-02-08 18:26:00,
2013-02-08 10:31:00,46.3,40.8,30.01,NW,313,5.8,5.8,81,0.00,BKN,,0.04,165.0,WeatherDisplay:10.37,2013-02-08 18:31:00,
2013-02-08 10:37:00,46.4,40.6,30.02,NW,315,4.6,4.6,80,0.00,BKN,,0.04,195.0,WeatherDisplay:10.37,2013-02-08 18:37:00,
2013-02-08 10:42:00,46.7,40.9,30.02,North,355,4.6,4.6,80,0.00,SCT,,0.04,246.0,WeatherDisplay:10.37,2013-02-08 18:42:00,
2013-02-08 10:47:00,47.1,40.6,30.01,NW,309,2.3,2.3,78,0.00,SCT,,0.04,341.0,WeatherDisplay:10.37,2013-02-08 18:47:00,
2013-02-08 10:52:00,47.4,40.2,30.02,NW,324,4.6,4.6,76,0.00,SCT,,0.04,264.0,WeatherDisplay:10.37,2013-02-08 18:52:00,
2013-02-08 10:57:00,47.6,41.1,30.01,ENE,63,1.2,1.2,78,0.00,SCT,,0.04,250.0,WeatherDisplay:10.37,2013-02-08 18:57:00,
2013-02-08 11:02:00,47.4,40.6,30.02,NNW,333,3.5,3.5,77,0.00,SCT,,0.04,265.0,WeatherDisplay:10.37,2013-02-08 19:02:00,
2013-02-08 11:07:00,47.9,41.4,30.02,North,5,2.3,2.3,78,0.00,FEW,,0.04,612.0,WeatherDisplay:10.37,2013-02-08 19:07:00,
2013-02-08 11:12:00,48.2,41.0,30.01,West,261,8.1,8.1,76,0.00,CLR,,0.04,338.0,WeatherDisplay:10.37,2013-02-08 19:12:00,
2013-02-08 11:17:00,47.6,40.4,30.02,NW,307,5.8,5.8,76,0.00,SCT,,0.04,207.0,WeatherDisplay:10.37,2013-02-08 19:17:00,
2013-02-08 11:22:00,47.4,40.9,30.01,NNE,29,2.3,2.3,78,0.00,SCT,,0.04,269.0,WeatherDisplay:10.37,2013-02-08 19:22:00,
2013-02-08 11:27:00,47.9,40.7,30.01,NNE,29,1.2,1.2,76,0.00,SCT,,0.04,334.0,WeatherDisplay:10.37,2013-02-08 19:27:00,
2013-02-08 11:32:00,48.6,40.7,30.00,NNE,29,1.2,1.2,74,0.00,SCT,,0.04,258.0,WeatherDisplay:10.37,2013-02-08 19:32:00,
2013-02-08 11:37:00,48.5,39.9,30.01,North,360,2.3,2.3,72,0.00,SCT,,0.04,628.0,WeatherDisplay:10.37,2013-02-08 19:37:00,
2013-02-08 11:42:00,49.4,40.4,30.00,North,5,2.3,2.3,71,0.00,CLR,,0.04,650.0,WeatherDisplay:10.37,2013-02-08 19:42:00,
2013-02-08 11:47:00,49.5,40.1,30.01,NW,315,5.8,5.8,70,0.00,CLR,,0.04,650.0,WeatherDisplay:10.37,2013-02-08 19:47:00,
2013-02-08 11:53:00,49.5,40.1,30.00,NE,55,1.2,1.2,70,0.00,CLR,,0.04,772.0,WeatherDisplay:10.37,2013-02-08 19:53:00,
2013-02-08 11:58:00,50.7,40.9,30.00,NNE,26,1.2,1.2,69,0.00,CLR,,0.04,700.0,WeatherDisplay:10.37,2013-02-08 19:58:00,
2013-02-08 12:03:00,50.5,39.6,30.00,WNW,302,2.3,2.3,66,0.00,CLR,,0.04,868.0,WeatherDisplay:10.37,2013-02-08 20:03:00,
2013-02-08 12:08:00,49.7,38.8,30.00,WNW,296,4.0,4.0,66,0.00,CLR,,0.04,251.0,WeatherDisplay:10.37,2013-02-08 20:08:00,
2013-02-08 12:13:00,48.8,38.7,30.00,West,277,3.5,3.5,68,0.00,FEW,,0.04,285.0,WeatherDisplay:10.37,2013-02-08 20:13:00,
2013-02-08 12:18:00,49.2,39.1,30.00,NW,321,1.2,1.2,68,0.00,SCT,,0.04,292.0,WeatherDisplay:10.37,2013-02-08 20:18:00,
2013-02-08 12:23:00,49.6,39.8,29.99,NNW,335,0.0,0.1,69,0.00,SCT,,0.04,221.0,WeatherDisplay:10.37,2013-02-08 20:23:00,
2013-02-08 12:28:00,49.5,39.7,29.99,NW,310,1.2,0.0,69,0.00,SCT,,0.04,229.0,WeatherDisplay:10.37,2013-02-08 20:28:00,
2013-02-08 12:33:00,49.1,39.0,29.99,NW,305,8.0,8.0,68,0.00,BKN,,0.04,339.0,WeatherDisplay:10.37,2013-02-08 20:33:00,
2013-02-08 12:38:00,48.9,38.8,29.99,NNE,32,1.2,1.2,68,0.00,SCT,,0.04,717.0,WeatherDisplay:10.37,2013-02-08 20:38:00,
2013-02-08 12:43:00,50.2,40.0,29.99,North,360,3.5,3.5,68,0.00,CLR,,0.04,689.0,WeatherDisplay:10.37,2013-02-08 20:43:00,
2013-02-08 12:48:00,51.1,39.7,29.99,West,269,6.0,6.0,65,0.00,CLR,,0.04,696.0,WeatherDisplay:10.37,2013-02-08 20:48:00,
2013-02-08 12:53:00,50.9,39.9,29.98,WNW,286,3.5,3.5,66,0.00,CLR,,0.04,552.0,WeatherDisplay:10.37,2013-02-08 20:53:00,
2013-02-08 12:58:00,51.4,39.6,29.99,NW,320,5.0,5.0,64,0.00,CLR,,0.04,740.0,WeatherDisplay:10.37,2013-02-08 20:58:00,
2013-02-08 13:03:00,51.2,39.4,29.99,NNW,334,5.8,5.8,64,0.00,CLR,,0.04,796.0,WeatherDisplay:10.37,2013-02-08 21:03:00,
2013-02-08 13:08:00,52.3,40.5,29.98,NNW,332,1.2,1.2,64,0.00,CLR,,0.04,260.0,WeatherDisplay:10.37,2013-02-08 21:08:00,
2013-02-08 13:13:00,51.1,39.3,29.98,West,277,9.2,9.2,64,0.00,CLR,,0.04,373.0,WeatherDisplay:10.37,2013-02-08 21:13:00,
2013-02-08 13:18:00,49.9,38.6,29.98,NW,315,4.6,4.6,65,0.00,SCT,,0.04,257.0,WeatherDisplay:10.37,2013-02-08 21:18:00,
2013-02-08 13:23:00,50.3,39.4,29.98,WNW,297,4.6,4.6,66,0.00,SCT,,0.04,461.0,WeatherDisplay:10.37,2013-02-08 21:23:00,
2013-02-08 13:28:00,51.1,40.1,29.98,NNW,331,1.2,1.2,66,0.00,SCT,,0.04,339.0,WeatherDisplay:10.37,2013-02-08 21:28:00,
2013-02-08 13:33:00,51.6,39.4,29.98,WNW,290,8.1,8.1,63,0.00,SCT,,0.04,657.0,WeatherDisplay:10.37,2013-02-08 21:33:00,
2013-02-08 13:38:00,51.3,39.1,29.98,NNW,328,6.9,6.9,63,0.00,SCT,,0.04,587.0,WeatherDisplay:10.37,2013-02-08 21:38:00,
2013-02-08 13:43:00,51.2,38.6,29.98,WNW,292,4.6,4.6,62,0.00,CLR,,0.04,573.0,WeatherDisplay:10.37,2013-02-08 21:43:00,
2013-02-08 13:48:00,51.2,39.0,29.98,WNW,290,2.3,2.3,63,0.00,CLR,,0.04,571.0,WeatherDisplay:10.37,2013-02-08 21:48:00,
2013-02-08 13:53:00,51.7,38.7,29.98,West,279,5.8,5.8,61,0.00,CLR,,0.04,566.0,WeatherDisplay:10.37,2013-02-08 21:53:00,
2013-02-08 13:58:00,51.7,38.7,29.97,WNW,300,9.2,9.2,61,0.00,CLR,,0.04,559.0,WeatherDisplay:10.37,2013-02-08 21:58:00,
2013-02-08 14:03:00,51.3,38.7,29.97,NW,310,4.6,4.6,62,0.00,CLR,,0.04,561.0,WeatherDisplay:10.37,2013-02-08 22:03:00,
2013-02-08 14:08:00,52.8,39.7,29.97,WNW,292,2.3,2.3,61,0.00,CLR,,0.04,554.0,WeatherDisplay:10.37,2013-02-08 22:08:00,
2013-02-08 14:13:00,52.7,39.6,29.97,WNW,288,9.0,9.0,61,0.00,CLR,,0.04,540.0,WeatherDisplay:10.37,2013-02-08 22:13:00,
2013-02-08 14:18:00,52.6,39.1,29.96,WNW,292,4.0,4.0,60,0.00,CLR,,0.04,538.0,WeatherDisplay:10.37,2013-02-08 22:18:00,
2013-02-08 14:23:00,52.0,38.1,29.96,WNW,296,2.3,2.3,59,0.00,CLR,,0.04,517.0,WeatherDisplay:10.37,2013-02-08 22:23:00,
2013-02-08 14:28:00,52.0,38.5,29.96,WNW,288,6.9,6.9,60,0.00,CLR,,0.04,510.0,WeatherDisplay:10.37,2013-02-08 22:28:00,
2013-02-08 14:33:00,52.2,38.7,29.96,WSW,248,3.5,3.5,60,0.00,CLR,,0.04,503.0,WeatherDisplay:10.37,2013-02-08 22:33:00,
2013-02-08 14:38:00,52.0,37.7,29.96,NW,306,3.5,3.5,58,0.00,CLR,,0.04,278.0,WeatherDisplay:10.37,2013-02-08 22:38:00,
2013-02-08 14:43:00,52.2,37.9,29.96,WNW,283,11.5,11.5,58,0.00,CLR,,0.04,512.0,WeatherDisplay:10.37,2013-02-08 22:43:00,
2013-02-08 14:48:00,52.1,38.2,29.95,West,269,2.3,2.3,59,0.00,CLR,,0.04,125.0,WeatherDisplay:10.37,2013-02-08 22:48:00,
2013-02-08 14:53:00,52.1,38.6,29.96,NW,306,4.0,4.0,60,0.00,SCT,,0.04,125.0,WeatherDisplay:10.37,2013-02-08 22:53:00,
2013-02-08 14:58:00,52.0,38.1,29.96,West,281,7.0,7.0,59,0.00,SCT,,0.04,473.0,WeatherDisplay:10.37,2013-02-08 22:58:00,
2013-02-08 15:03:00,52.2,38.7,29.96,WNW,283,5.8,5.8,60,0.00,CLR,,0.04,320.0,WeatherDisplay:10.37,2013-02-08 23:03:00,
2013-02-08 15:08:00,52.0,38.1,29.96,WNW,284,6.0,6.0,59,0.00,CLR,,0.04,95.0,WeatherDisplay:10.37,2013-02-08 23:08:00,
2013-02-08 15:13:00,52.3,38.4,29.95,ENE,67,2.3,2.3,59,0.00,CLR,,0.04,360.0,WeatherDisplay:10.37,2013-02-08 23:13:00,
2013-02-08 15:18:00,52.9,38.5,29.95,WNW,301,5.0,5.0,58,0.00,CLR,,0.04,294.0,WeatherDisplay:10.37,2013-02-08 23:18:00,
2013-02-08 15:23:00,52.8,38.4,29.95,WNW,298,5.8,5.8,58,0.00,SCT,,0.04,67.0,WeatherDisplay:10.37,2013-02-08 23:23:00,
2013-02-08 15:28:00,52.8,38.0,29.95,West,281,4.6,4.6,57,0.00,SCT,,0.04,251.0,WeatherDisplay:10.37,2013-02-08 23:28:00,
2013-02-08 15:33:00,53.2,38.4,29.96,South,187,5.8,5.8,57,0.00,SCT,,0.04,116.0,WeatherDisplay:10.37,2013-02-08 23:33:00,
2013-02-08 15:38:00,53.1,38.3,29.95,WNW,286,11.5,11.5,57,0.00,FEW,,0.04,332.0,WeatherDisplay:10.37,2013-02-08 23:38:00,
2013-02-08 15:43:00,53.2,38.8,29.95,West,273,5.0,5.0,58,0.00,CLR,,0.04,315.0,WeatherDisplay:10.37,2013-02-08 23:43:00,
2013-02-08 15:48:00,53.3,38.9,29.95,NNW,344,9.2,9.2,58,0.00,CLR,,0.04,313.0,WeatherDisplay:10.37,2013-02-08 23:48:00,
2013-02-08 15:53:00,53.5,39.5,29.95,NW,319,2.3,2.3,59,0.00,CLR,,0.04,132.0,WeatherDisplay:10.37,2013-02-08 23:53:00,
2013-02-08 15:58:00,53.6,39.6,29.96,WNW,294,11.0,11.0,59,0.00,FEW,,0.04,84.0,WeatherDisplay:10.37,2013-02-08 23:58:00,
2013-02-08 16:03:00,53.3,39.8,29.96,WNW,293,8.1,8.1,60,0.00,BKN,,0.04,51.0,WeatherDisplay:10.37,2013-02-09 00:03:00,
2013-02-08 16:08:00,52.7,39.2,29.96,NNW,346,11.5,11.5,60,0.00,BKN,,0.04,49.0,WeatherDisplay:10.37,2013-02-09 00:08:00,
2013-02-08 16:13:00,52.4,39.3,29.95,NW,318,9.2,9.2,61,0.00,BKN,,0.04,51.0,WeatherDisplay:10.37,2013-02-09 00:13:00,
2013-02-08 16:18:00,52.3,39.2,29.95,WNW,298,5.8,5.8,61,0.00,BKN,,0.04,56.0,WeatherDisplay:10.37,2013-02-09 00:18:00,
2013-02-08 16:23:00,52.4,39.8,29.95,WNW,299,3.5,3.5,62,0.00,BKN,,0.04,72.0,WeatherDisplay:10.37,2013-02-09 00:23:00,
2013-02-08 16:28:00,52.2,38.7,29.95,NW,311,6.9,6.9,60,0.00,BKN,,0.04,35.0,WeatherDisplay:10.37,2013-02-09 00:28:00,
2013-02-08 16:33:00,52.2,39.1,29.95,WNW,290,6.0,6.0,61,0.00,BKN,,0.04,33.0,WeatherDisplay:10.37,2013-02-09 00:33:00,
2013-02-08 16:38:00,52.1,39.5,29.95,West,267,3.5,3.5,62,0.00,BKN,,0.04,32.0,WeatherDisplay:10.37,2013-02-09 00:38:00,
2013-02-08 16:43:00,52.0,39.4,29.95,NNW,327,5.8,5.8,62,0.00,BKN,,0.04,30.0,WeatherDisplay:10.37,2013-02-09 00:43:00,
2013-02-08 16:48:00,51.8,38.8,29.95,West,277,6.9,6.9,61,0.00,BKN,,0.04,39.0,WeatherDisplay:10.37,2013-02-09 00:48:00,
2013-02-08 16:53:00,51.7,39.1,29.95,WNW,292,5.0,5.0,62,0.00,BKN,,0.04,26.0,WeatherDisplay:10.37,2013-02-09 00:53:00,
2013-02-08 16:58:00,51.6,38.6,29.95,WNW,296,11.5,11.5,61,0.00,BKN,,0.04,28.0,WeatherDisplay:10.37,2013-02-09 00:58:00,
2013-02-08 17:03:00,51.3,37.9,29.95,WNW,298,7.0,7.0,60,0.00,BKN,,0.04,23.0,WeatherDisplay:10.37,2013-02-09 01:03:00,
2013-02-08 17:08:00,51.2,37.8,29.95,WNW,300,4.6,4.6,60,0.00,BKN,,0.04,21.0,WeatherDisplay:10.37,2013-02-09 01:08:00,
2013-02-08 17:13:00,51.0,37.6,29.95,WNW,289,12.7,12.7,60,0.00,BKN,,0.04,19.0,WeatherDisplay:10.37,2013-02-09 01:13:00,
2013-02-08 17:18:00,50.9,37.9,29.95,WNW,296,5.8,5.8,61,0.00,BKN,,0.04,16.0,WeatherDisplay:10.37,2013-02-09 01:18:00,
2013-02-08 17:23:00,50.7,37.7,29.95,WNW,300,4.6,4.6,61,0.00,BKN,,0.04,14.0,WeatherDisplay:10.37,2013-02-09 01:23:00,
2013-02-08 17:28:00,50.6,37.6,29.95,WNW,299,2.3,2.3,61,0.00,SCT,,0.04,11.0,WeatherDisplay:10.37,2013-02-09 01:28:00,
2013-02-08 17:33:00,50.4,37.9,29.95,WNW,299,0.0,0.0,62,0.00,SCT,,0.04,7.0,WeatherDisplay:10.37,2013-02-09 01:33:00,
2013-02-08 17:38:00,50.2,37.7,29.96,WNW,295,1.2,1.2,62,0.00,OVC,,0.04,5.0,WeatherDisplay:10.37,2013-02-09 01:38:00,
2013-02-08 17:43:00,49.9,37.8,29.96,WNW,295,1.2,1.2,63,0.00,OVC,,0.04,0.0,WeatherDisplay:10.37,2013-02-09 01:43:00,
2013-02-08 17:48:00,49.6,37.5,29.96,WNW,295,1.2,0.0,63,0.00,OVC,,0.04,0.0,WeatherDisplay:10.37,2013-02-09 01:48:00,
2013-02-08 17:53:00,49.4,37.7,29.96,WNW,295,0.0,0.0,64,0.00,OVC,,0.04,0.0,WeatherDisplay:10.37,2013-02-09 01:53:00,
2013-02-08 17:58:00,49.2,37.9,29.96,WNW,295,0.0,0.0,65,0.00,OVC,,0.04,0.0,WeatherDisplay:10.37,2013-02-09 01:58:00,
2013-02-08 18:03:00,48.9,37.6,29.95,WNW,295,0.0,0.0,65,0.00,,,0.04,0.0,WeatherDisplay:10.37,2013-02-09 02:03:00,
2013-02-08 18:08:00,48.6,37.4,29.96,WNW,295,0.0,0.0,65,0.00,,,0.04,0.0,WeatherDisplay:10.37,2013-02-09 02:08:00,
2013-02-08 18:13:00,48.2,37.4,29.96,WNW,295,0.0,0.0,66,0.00,,,0.04,0.0,WeatherDisplay:10.37,2013-02-09 02:13:00,
2013-02-08 18:18:00,47.8,37.4,29.96,WNW,295,0.0,0.0,67,0.00,,,0.04,0.0,WeatherDisplay:10.37,2013-02-09 02:18:00,
2013-02-08 18:23:00,47.4,37.4,29.96,WNW,295,0.0,0.0,68,0.00,,,0.04,0.0,WeatherDisplay:10.37,2013-02-09 02:23:00,
2013-02-08 18:28:00,47.1,37.1,29.96,WNW,295,0.0,0.0,68,0.00,,,0.04,0.0,WeatherDisplay:10.37,2013-02-09 02:28:00,
2013-02-08 18:33:00,46.7,37.1,29.96,WNW,295,0.0,0.0,69,0.00,,,0.04,0.0,WeatherDisplay:10.37,2013-02-09 02:33:00,
2013-02-08 18:38:00,46.3,36.7,29.96,WNW,295,0.0,0.0,69,0.00,,,0.04,0.0,WeatherDisplay:10.37,2013-02-09 02:38:00,
2013-02-08 18:43:00,46.0,36.8,29.96,WNW,295,0.0,0.0,70,0.00,,,0.04,0.0,WeatherDisplay:10.37,2013-02-09 02:43:00,
2013-02-08 18:48:00,45.7,36.8,29.97,WNW,295,0.0,0.0,71,0.00,,,0.04,0.0,WeatherDisplay:10.37,2013-02-09 02:48:00,
2013-02-08 18:53:00,45.4,36.9,29.96,WNW,295,0.0,0.0,72,0.00,CLR,,0.04,0.0,WeatherDisplay:10.37,2013-02-09 02:53:00,
2013-02-08 18:58:00,45.1,37.0,29.96,WNW,295,0.0,0.0,73,0.00,,,0.04,0.0,WeatherDisplay:10.37,2013-02-09 02:58:00,
2013-02-08 19:03:00,44.9,36.8,29.96,WNW,295,0.0,0.0,73,0.00,,,0.04,0.0,WeatherDisplay:10.37,2013-02-09 03:03:00,
2013-02-08 19:08:00,44.7,36.9,29.96,WNW,295,0.0,0.0,74,0.00,,,0.04,0.0,WeatherDisplay:10.37,2013-02-09 03:08:00,
2013-02-08 19:13:00,44.4,37.0,29.96,WNW,295,0.0,0.0,75,0.00,,,0.04,0.0,WeatherDisplay:10.37,2013-02-09 03:13:00,
2013-02-08 19:18:00,44.3,37.2,29.97,WNW,295,0.0,0.0,76,0.00,,,0.04,0.0,WeatherDisplay:10.37,2013-02-09 03:18:00,
2013-02-08 19:23:00,44.1,37.0,29.96,WNW,295,0.0,0.0,76,0.00,,,0.04,0.0,WeatherDisplay:10.37,2013-02-09 03:23:00,
2013-02-08 19:28:00,43.9,37.2,29.96,WNW,295,0.0,0.0,77,0.00,,,0.04,0.0,WeatherDisplay:10.37,2013-02-09 03:28:00,
2013-02-08 19:33:00,43.8,37.1,29.97,WNW,295,0.0,0.0,77,0.00,,,0.04,0.0,WeatherDisplay:10.37,2013-02-09 03:33:00,
2013-02-08 19:38:00,43.7,37.3,29.97,WNW,295,0.0,0.0,78,0.00,,,0.04,0.0,WeatherDisplay:10.37,2013-02-09 03:38:00,
2013-02-08 19:43:00,43.6,37.2,29.97,WNW,295,0.0,0.0,78,0.00,,,0.04,0.0,WeatherDisplay:10.37,2013-02-09 03:43:00,
2013-02-08 19:48:00,43.4,37.0,29.97,WNW,295,0.0,0.0,78,0.00,,,0.04,0.0,WeatherDisplay:10.37,2013-02-09 03:48:00,
2013-02-08 19:53:00,43.2,36.8,29.97,WNW,295,0.0,0.0,78,0.00,CLR,,0.04,0.0,WeatherDisplay:10.37,2013-02-09 03:53:00,
2013-02-08 19:58:00,43.0,36.9,29.97,WNW,295,0.0,0.0,79,0.00,,,0.04,0.0,WeatherDisplay:10.37,2013-02-09 03:58:00,
2013-02-08 20:03:00,42.8,36.7,29.97,WNW,295,0.0,0.0,79,0.00,,,0.04,0.0,WeatherDisplay:10.37,2013-02-09 04:03:00,
2013-02-08 20:08:00,42.5,36.8,29.97,WNW,295,0.0,0.0,80,0.00,,,0.04,0.0,WeatherDisplay:10.37,2013-02-09 04:08:00,
2013-02-08 20:13:00,42.3,36.6,29.97,WNW,295,0.0,0.0,80,0.00,,,0.04,0.0,WeatherDisplay:10.37,2013-02-09 04:13:00,
2013-02-08 20:18:00,42.1,36.4,29.98,WNW,295,0.0,0.0,80,0.00,,,0.04,0.0,WeatherDisplay:10.37,2013-02-09 04:18:00,
2013-02-08 20:23:00,41.9,36.2,29.97,WNW,295,0.0,0.0,80,0.00,,,0.04,0.0,WeatherDisplay:10.37,2013-02-09 04:23:00,
2013-02-08 20:28:00,41.8,36.4,29.98,WNW,295,0.0,0.0,81,0.00,,,0.04,0.0,WeatherDisplay:10.37,2013-02-09 04:28:00,
2013-02-08 20:33:00,41.6,36.2,29.97,WNW,295,0.0,0.0,81,0.00,,,0.04,0.0,WeatherDisplay:10.37,2013-02-09 04:33:00,
2013-02-08 20:38:00,41.4,36.0,29.98,WNW,295,0.0,0.0,81,0.00,,,0.04,0.0,WeatherDisplay:10.37,2013-02-09 04:38:00,
2013-02-08 20:43:00,41.2,35.8,29.98,WNW,295,0.0,0.0,81,0.00,,,0.04,0.0,WeatherDisplay:10.37,2013-02-09 04:43:00,
2013-02-08 20:48:00,41.0,35.9,29.98,WNW,295,0.0,0.0,82,0.00,,,0.04,0.0,WeatherDisplay:10.37,2013-02-09 04:48:00,
2013-02-08 20:53:00,40.9,35.8,29.98,WNW,295,0.0,0.0,82,0.00,,,0.04,0.0,WeatherDisplay:10.37,2013-02-09 04:53:00,
2013-02-08 20:58:00,40.7,35.9,29.97,WNW,295,0.0,0.0,83,0.00,,,0.04,0.0,WeatherDisplay:10.37,2013-02-09 04:58:00,
2013-02-08 21:00:00,40.7,35.9,29.97,WNW,295,0.0,0.0,83,0.00,,,0.04,0.0,WeatherDisplay:10.37,2013-02-09 05:00:00,
2013-02-08 21:02:00,40.6,35.8,29.97,WNW,295,0.0,0.0,83,0.00,,,0.04,0.0,WeatherDisplay:10.37,2013-02-09 05:02:00,
2013-02-08 21:07:00,40.4,35.6,29.97,WNW,295,0.0,0.0,83,0.00,CLR,,0.04,0.0,WeatherDisplay:10.37,2013-02-09 05:07:00,
2013-02-08 21:12:00,40.3,35.5,29.97,WNW,295,0.0,0.0,83,0.00,,,0.04,0.0,WeatherDisplay:10.37,2013-02-09 05:12:00,
2013-02-08 21:17:00,40.2,35.8,29.97,WNW,295,0.0,0.0,84,0.00,,,0.04,0.0,WeatherDisplay:10.37,2013-02-09 05:17:00,
2013-02-08 21:22:00,40.0,35.6,29.97,WNW,295,0.0,0.0,84,0.00,,,0.04,0.0,WeatherDisplay:10.37,2013-02-09 05:22:00,
2013-02-08 21:27:00,39.9,35.5,29.97,WNW,295,0.0,0.0,84,0.00,,,0.04,0.0,WeatherDisplay:10.37,2013-02-09 05:27:00,
2013-02-08 21:32:00,39.8,35.4,29.97,WNW,295,0.0,0.0,84,0.00,,,0.04,0.0,WeatherDisplay:10.37,2013-02-09 05:32:00,
2013-02-08 21:37:00,39.8,35.7,29.97,WNW,295,0.0,0.0,85,0.00,,,0.04,0.0,WeatherDisplay:10.37,2013-02-09 05:37:00,
2013-02-08 21:42:00,40.0,35.9,29.97,WNW,295,0.0,0.0,85,0.00,,,0.04,0.0,WeatherDisplay:10.37,2013-02-09 05:42:00,
2013-02-08 21:47:00,40.1,36.0,29.97,WNW,295,0.0,0.0,85,0.00,,,0.04,0.0,WeatherDisplay:10.37,2013-02-09 05:47:00,
2013-02-08 21:52:00,40.1,36.0,29.97,WNW,295,0.0,0.0,85,0.00,,,0.04,0.0,WeatherDisplay:10.37,2013-02-09 05:52:00,
2013-02-08 21:57:00,40.0,35.9,29.97,WNW,295,0.0,0.0,85,0.00,,,0.04,0.0,WeatherDisplay:10.37,2013-02-09 05:57:00,
2013-02-08 22:02:00,40.0,35.9,29.98,WNW,295,0.0,0.0,85,0.00,,,0.04,0.0,WeatherDisplay:10.37,2013-02-09 06:02:00,
2013-02-08 22:07:00,39.9,35.8,29.98,WNW,295,0.0,0.0,85,0.00,,,0.04,0.0,WeatherDisplay:10.37,2013-02-09 06:07:00,
2013-02-08 22:12:00,40.0,35.9,29.97,WNW,295,0.0,0.0,85,0.00,,,0.04,0.0,WeatherDisplay:10.37,2013-02-09 06:12:00,
2013-02-08 22:17:00,40.2,36.3,29.98,WNW,295,0.0,0.0,86,0.00,,,0.04,0.0,WeatherDisplay:10.37,2013-02-09 06:17:00,
2013-02-08 22:22:00,40.2,36.1,29.97,WNW,295,0.0,0.0,85,0.00,CLR,,0.04,0.0,WeatherDisplay:10.37,2013-02-09 06:22:00,
2013-02-08 22:27:00,40.1,36.0,29.98,WNW,295,0.0,0.0,85,0.00,,,0.04,0.0,WeatherDisplay:10.37,2013-02-09 06:27:00,
2013-02-08 22:32:00,39.9,35.8,29.97,WNW,295,0.0,0.0,85,0.00,,,0.04,0.0,WeatherDisplay:10.37,2013-02-09 06:32:00,
2013-02-08 22:37:00,39.8,35.7,29.98,WNW,295,0.0,0.0,85,0.00,,,0.04,0.0,WeatherDisplay:10.37,2013-02-09 06:37:00,
2013-02-08 22:42:00,39.7,35.6,29.97,WNW,295,0.0,0.0,85,0.00,,,0.04,0.0,WeatherDisplay:10.37,2013-02-09 06:42:00,
2013-02-08 22:47:00,39.7,35.6,29.97,WNW,295,0.0,0.0,85,0.00,,,0.04,0.0,WeatherDisplay:10.37,2013-02-09 06:47:00,
2013-02-08 22:52:00,39.8,35.7,29.97,WNW,295,0.0,0.0,85,0.00,,,0.04,0.0,WeatherDisplay:10.37,2013-02-09 06:52:00,
2013-02-08 22:57:00,39.6,35.2,29.97,WNW,295,0.0,0.0,84,0.00,CLR,,0.04,0.0,WeatherDisplay:10.37,2013-02-09 06:57:00,
2013-02-08 23:02:00,39.4,35.0,29.97,WNW,295,0.0,0.0,84,0.00,CLR,,0.04,0.0,WeatherDisplay:10.37,2013-02-09 07:02:00,
2013-02-08 23:07:00,39.1,34.7,29.97,WNW,295,0.0,0.0,84,0.00,,,0.04,0.0,WeatherDisplay:10.37,2013-02-09 07:07:00,
2013-02-08 23:12:00,38.9,34.5,29.97,WNW,295,0.0,0.0,84,0.00,,,0.04,0.0,WeatherDisplay:10.37,2013-02-09 07:12:00,
2013-02-08 23:17:00,38.7,34.6,29.97,WNW,295,0.0,0.0,85,0.00,,,0.04,0.0,WeatherDisplay:10.37,2013-02-09 07:17:00,
2013-02-08 23:22:00,38.5,34.4,29.98,WNW,295,0.0,0.0,85,0.00,,,0.04,0.0,WeatherDisplay:10.37,2013-02-09 07:22:00,
2013-02-08 23:27:00,38.3,34.2,29.98,WNW,295,0.0,0.0,85,0.00,,,0.04,0.0,WeatherDisplay:10.37,2013-02-09 07:27:00,
2013-02-08 23:32:00,38.0,33.9,29.98,WNW,295,0.0,0.0,85,0.00,CLR,,0.04,0.0,WeatherDisplay:10.37,2013-02-09 07:32:00,
2013-02-08 23:37:00,37.8,33.7,29.98,WNW,295,0.0,0.0,85,0.00,,,0.04,0.0,WeatherDisplay:10.37,2013-02-09 07:37:00,
2013-02-08 23:42:00,37.6,33.5,29.98,WNW,295,0.0,0.0,85,0.00,,,0.04,0.0,WeatherDisplay:10.37,2013-02-09 07:42:00,
2013-02-08 23:47:00,37.5,33.4,29.98,WNW,295,0.0,0.0,85,0.00,,,0.04,0.0,WeatherDisplay:10.37,2013-02-09 07:47:00,
2013-02-08 23:52:00,37.3,33.2,29.99,WNW,295,0.0,0.0,85,0.00,,,0.04,0.0,WeatherDisplay:10.37,2013-02-09 07:52:00,
2013-02-08 23:57:00,37.2,33.1,29.98,WNW,295,0.0,0.0,85,0.00,,,0.04,0.0,WeatherDisplay:10.37,2013-02-09 07:57:00,